sensor_id;sensor_type;location;lat;lon;timestamp;temperature;humidity
3684;DHT22;1858;48.716;9.648;2023-05-21T00:01:06;17.10;1.00
3684;DHT22;1858;48.716;9.648;2023-05-21T00:03:34;17.10;1.00
3684;DHT22;1858;48.716;9.648;2023-05-21T00:06:02;17.00;1.00
3684;DHT22;1858;48.716;9.648;2023-05-21T00:08:31;17.10;1.00
3684;DHT22;1858;48.716;9.648;2023-05-21T00:11:00;17.10;1.00
3684;DHT22;1858;48.716;9.648;2023-05-21T00:13:29;17.10;1.00
3684;DHT22;1858;48.716;9.648;2023-05-21T00:15:57;17.10;1.00
3684;DHT22;1858;48.716;9.648;2023-05-21T00:18:25;17.10;1.00
3684;DHT22;1858;48.716;9.648;2023-05-21T00:20:55;17.10;1.00
3684;DHT22;1858;48.716;9.648;2023-05-21T00:23:24;17.10;1.00
3684;DHT22;1858;48.716;9.648;2023-05-21T00:25:53;17.00;1.00
3684;DHT22;1858;48.716;9.648;2023-05-21T00:28:21;17.00;1.00
3684;DHT22;1858;48.716;9.648;2023-05-21T00:30:49;16.90;1.00
3684;DHT22;1858;48.716;9.648;2023-05-21T00:33:18;16.80;1.00
3684;DHT22;1858;48.716;9.648;2023-05-21T00:35:48;16.80;1.00
3684;DHT22;1858;48.716;9.648;2023-05-21T00:38:16;16.80;1.00
3684;DHT22;1858;48.716;9.648;2023-05-21T00:40:45;16.80;1.00
3684;DHT22;1858;48.716;9.648;2023-05-21T00:43:13;16.80;1.00
3684;DHT22;1858;48.716;9.648;2023-05-21T00:45:42;16.80;1.00
3684;DHT22;1858;48.716;9.648;2023-05-21T00:51:05;16.70;1.00
3684;DHT22;1858;48.716;9.648;2023-05-21T00:53:33;16.70;1.00
3684;DHT22;1858;48.716;9.648;2023-05-21T00:56:02;16.60;1.00
3684;DHT22;1858;48.716;9.648;2023-05-21T00:58:31;16.60;1.00
3684;DHT22;1858;48.716;9.648;2023-05-21T01:01:19;16.40;1.00
3684;DHT22;1858;48.716;9.648;2023-05-21T01:03:48;16.50;1.00
3684;DHT22;1858;48.716;9.648;2023-05-21T01:06:16;16.50;1.00
3684;DHT22;1858;48.716;9.648;2023-05-21T01:09:06;16.50;1.00
3684;DHT22;1858;48.716;9.648;2023-05-21T01:11:43;16.50;1.00
3684;DHT22;1858;48.716;9.648;2023-05-21T01:14:13;16.40;1.00
3684;DHT22;1858;48.716;9.648;2023-05-21T01:16:44;16.30;1.00
3684;DHT22;1858;48.716;9.648;2023-05-21T01:19:22;16.30;1.00
3684;DHT22;1858;48.716;9.648;2023-05-21T01:21:55;16.30;1.00
3684;DHT22;1858;48.716;9.648;2023-05-21T01:24:22;16.30;1.00
3684;DHT22;1858;48.716;9.648;2023-05-21T01:26:51;16.30;1.00
3684;DHT22;1858;48.716;9.648;2023-05-21T01:29:19;16.30;1.00
3684;DHT22;1858;48.716;9.648;2023-05-21T01:32:03;16.20;1.00
3684;DHT22;1858;48.716;9.648;2023-05-21T01:37:28;16.20;1.00
3684;DHT22;1858;48.716;9.648;2023-05-21T01:40:07;16.20;1.00
3684;DHT22;1858;48.716;9.648;2023-05-21T01:42:30;16.10;1.00
3684;DHT22;1858;48.716;9.648;2023-05-21T01:45:01;16.10;1.00
3684;DHT22;1858;48.716;9.648;2023-05-21T01:47:32;16.00;1.00
3684;DHT22;1858;48.716;9.648;2023-05-21T01:50:03;16.00;1.00
3684;DHT22;1858;48.716;9.648;2023-05-21T01:52:32;16.00;1.00
3684;DHT22;1858;48.716;9.648;2023-05-21T01:55:20;16.00;1.00
3684;DHT22;1858;48.716;9.648;2023-05-21T01:57:52;16.00;1.00
3684;DHT22;1858;48.716;9.648;2023-05-21T02:00:22;15.80;1.00
3684;DHT22;1858;48.716;9.648;2023-05-21T02:02:51;15.80;1.00
3684;DHT22;1858;48.716;9.648;2023-05-21T02:05:20;15.60;10.10
3684;DHT22;1858;48.716;9.648;2023-05-21T02:07:49;15.50;38.70
3684;DHT22;1858;48.716;9.648;2023-05-21T02:10:19;15.50;68.60
3684;DHT22;1858;48.716;9.648;2023-05-21T02:12:47;15.50;96.90
3684;DHT22;1858;48.716;9.648;2023-05-21T02:15:16;15.60;99.90
3684;DHT22;1858;48.716;9.648;2023-05-21T02:17:45;15.60;99.90
3684;DHT22;1858;48.716;9.648;2023-05-21T02:20:14;15.60;99.90
3684;DHT22;1858;48.716;9.648;2023-05-21T02:23:01;15.60;99.90
3684;DHT22;1858;48.716;9.648;2023-05-21T02:25:30;15.60;99.90
3684;DHT22;1858;48.716;9.648;2023-05-21T02:27:58;15.50;99.90
3684;DHT22;1858;48.716;9.648;2023-05-21T02:30:27;15.50;99.90
3684;DHT22;1858;48.716;9.648;2023-05-21T02:32:55;15.50;99.90
3684;DHT22;1858;48.716;9.648;2023-05-21T02:35:44;15.50;99.90
3684;DHT22;1858;48.716;9.648;2023-05-21T02:38:13;15.40;99.90
3684;DHT22;1858;48.716;9.648;2023-05-21T02:40:43;15.40;99.90
3684;DHT22;1858;48.716;9.648;2023-05-21T02:43:31;15.30;99.90
3684;DHT22;1858;48.716;9.648;2023-05-21T02:45:59;15.30;99.90
3684;DHT22;1858;48.716;9.648;2023-05-21T02:48:27;15.30;99.90
3684;DHT22;1858;48.716;9.648;2023-05-21T02:50:56;15.30;99.90
3684;DHT22;1858;48.716;9.648;2023-05-21T02:53:25;15.30;99.90
3684;DHT22;1858;48.716;9.648;2023-05-21T02:56:12;15.20;99.90
3684;DHT22;1858;48.716;9.648;2023-05-21T02:58:41;15.20;99.90
3684;DHT22;1858;48.716;9.648;2023-05-21T03:01:09;15.10;99.90
3684;DHT22;1858;48.716;9.648;2023-05-21T03:03:38;15.10;99.90
3684;DHT22;1858;48.716;9.648;2023-05-21T03:06:06;15.00;99.90
3684;DHT22;1858;48.716;9.648;2023-05-21T03:08:36;15.00;99.90
3684;DHT22;1858;48.716;9.648;2023-05-21T03:11:04;15.00;99.90
3684;DHT22;1858;48.716;9.648;2023-05-21T03:13:33;14.90;99.90
3684;DHT22;1858;48.716;9.648;2023-05-21T03:16:01;14.90;99.90
3684;DHT22;1858;48.716;9.648;2023-05-21T03:18:29;14.90;99.90
3684;DHT22;1858;48.716;9.648;2023-05-21T03:20:58;14.80;99.90
3684;DHT22;1858;48.716;9.648;2023-05-21T03:23:46;14.80;99.90
3684;DHT22;1858;48.716;9.648;2023-05-21T03:26:14;14.90;99.90
3684;DHT22;1858;48.716;9.648;2023-05-21T03:28:42;14.80;99.90
3684;DHT22;1858;48.716;9.648;2023-05-21T03:31:11;14.70;99.90
3684;DHT22;1858;48.716;9.648;2023-05-21T03:33:39;14.60;99.90
3684;DHT22;1858;48.716;9.648;2023-05-21T03:36:08;14.60;99.90
3684;DHT22;1858;48.716;9.648;2023-05-21T03:38:36;14.60;99.90
3684;DHT22;1858;48.716;9.648;2023-05-21T03:41:06;14.60;99.90
3684;DHT22;1858;48.716;9.648;2023-05-21T03:43:35;14.60;99.90
3684;DHT22;1858;48.716;9.648;2023-05-21T03:46:03;14.50;99.90
3684;DHT22;1858;48.716;9.648;2023-05-21T03:48:32;14.50;99.90
3684;DHT22;1858;48.716;9.648;2023-05-21T03:51:00;14.50;99.90
3684;DHT22;1858;48.716;9.648;2023-05-21T03:53:28;14.50;99.90
3684;DHT22;1858;48.716;9.648;2023-05-21T03:55:57;14.50;99.90
3684;DHT22;1858;48.716;9.648;2023-05-21T03:58:25;14.50;99.90
3684;DHT22;1858;48.716;9.648;2023-05-21T04:00:54;14.50;1.00
3684;DHT22;1858;48.716;9.648;2023-05-21T04:03:23;14.50;1.00
3684;DHT22;1858;48.716;9.648;2023-05-21T04:05:51;14.50;1.00
3684;DHT22;1858;48.716;9.648;2023-05-21T04:08:39;14.50;1.00
3684;DHT22;1858;48.716;9.648;2023-05-21T04:11:07;14.50;1.00
3684;DHT22;1858;48.716;9.648;2023-05-21T04:13:35;14.60;1.00
3684;DHT22;1858;48.716;9.648;2023-05-21T04:16:05;14.60;1.00
3684;DHT22;1858;48.716;9.648;2023-05-21T04:18:35;14.60;1.00
3684;DHT22;1858;48.716;9.648;2023-05-21T04:21:04;14.70;1.00
3684;DHT22;1858;48.716;9.648;2023-05-21T04:23:32;14.80;1.00
3684;DHT22;1858;48.716;9.648;2023-05-21T04:26:02;14.80;1.40
3684;DHT22;1858;48.716;9.648;2023-05-21T04:28:31;14.80;99.90
3684;DHT22;1858;48.716;9.648;2023-05-21T04:30:59;14.70;99.90
3684;DHT22;1858;48.716;9.648;2023-05-21T04:33:28;14.70;1.00
3684;DHT22;1858;48.716;9.648;2023-05-21T04:35:56;14.80;1.00
3684;DHT22;1858;48.716;9.648;2023-05-21T04:38:25;14.80;1.00
3684;DHT22;1858;48.716;9.648;2023-05-21T04:40:53;14.80;1.00
3684;DHT22;1858;48.716;9.648;2023-05-21T04:43:22;14.80;1.00
3684;DHT22;1858;48.716;9.648;2023-05-21T04:45:53;14.90;1.00
3684;DHT22;1858;48.716;9.648;2023-05-21T04:48:23;15.00;1.00
3684;DHT22;1858;48.716;9.648;2023-05-21T04:50:53;15.00;1.00
3684;DHT22;1858;48.716;9.648;2023-05-21T04:53:23;15.10;1.00
3684;DHT22;1858;48.716;9.648;2023-05-21T04:55:52;15.20;1.00
3684;DHT22;1858;48.716;9.648;2023-05-21T04:58:20;15.20;1.00
3684;DHT22;1858;48.716;9.648;2023-05-21T05:00:48;15.20;1.00
3684;DHT22;1858;48.716;9.648;2023-05-21T05:03:18;15.20;1.00
3684;DHT22;1858;48.716;9.648;2023-05-21T05:05:47;15.20;1.00
3684;DHT22;1858;48.716;9.648;2023-05-21T05:08:15;15.30;1.00
3684;DHT22;1858;48.716;9.648;2023-05-21T05:10:43;15.40;1.00
3684;DHT22;1858;48.716;9.648;2023-05-21T05:13:12;15.40;1.00
3684;DHT22;1858;48.716;9.648;2023-05-21T05:15:40;15.50;1.00
3684;DHT22;1858;48.716;9.648;2023-05-21T05:18:09;15.60;1.00
3684;DHT22;1858;48.716;9.648;2023-05-21T05:20:38;15.70;1.40
3684;DHT22;1858;48.716;9.648;2023-05-21T05:23:06;15.80;99.90
3684;DHT22;1858;48.716;9.648;2023-05-21T05:25:34;15.90;99.90
3684;DHT22;1858;48.716;9.648;2023-05-21T05:28:03;16.10;99.90
3684;DHT22;1858;48.716;9.648;2023-05-21T05:30:32;16.20;99.90
3684;DHT22;1858;48.716;9.648;2023-05-21T05:33:00;16.30;99.90
3684;DHT22;1858;48.716;9.648;2023-05-21T05:35:28;16.40;99.90
3684;DHT22;1858;48.716;9.648;2023-05-21T05:37:57;16.60;99.90
3684;DHT22;1858;48.716;9.648;2023-05-21T05:40:25;16.80;99.90
3684;DHT22;1858;48.716;9.648;2023-05-21T05:42:54;16.90;99.90
3684;DHT22;1858;48.716;9.648;2023-05-21T05:45:22;17.00;99.90
3684;DHT22;1858;48.716;9.648;2023-05-21T05:47:52;17.10;99.90
3684;DHT22;1858;48.716;9.648;2023-05-21T05:50:21;17.10;99.90
3684;DHT22;1858;48.716;9.648;2023-05-21T05:52:58;17.30;99.90
3684;DHT22;1858;48.716;9.648;2023-05-21T05:55:26;17.60;64.40
3684;DHT22;1858;48.716;9.648;2023-05-21T05:57:55;17.70;22.00
3684;DHT22;1858;48.716;9.648;2023-05-21T06:00:23;17.90;2.00
3684;DHT22;1858;48.716;9.648;2023-05-21T06:02:52;18.10;1.00
3684;DHT22;1858;48.716;9.648;2023-05-21T06:05:20;18.30;1.00
3684;DHT22;1858;48.716;9.648;2023-05-21T06:07:49;18.40;1.00
3684;DHT22;1858;48.716;9.648;2023-05-21T06:10:17;18.60;1.00
3684;DHT22;1858;48.716;9.648;2023-05-21T06:12:46;18.70;1.00
3684;DHT22;1858;48.716;9.648;2023-05-21T06:15:15;19.00;1.00
3684;DHT22;1858;48.716;9.648;2023-05-21T06:17:45;19.20;1.00
3684;DHT22;1858;48.716;9.648;2023-05-21T06:20:14;19.40;1.00
3684;DHT22;1858;48.716;9.648;2023-05-21T06:22:43;19.60;1.00
3684;DHT22;1858;48.716;9.648;2023-05-21T06:25:11;19.90;1.00
3684;DHT22;1858;48.716;9.648;2023-05-21T06:27:40;20.20;1.00
3684;DHT22;1858;48.716;9.648;2023-05-21T06:30:09;20.60;1.00
3684;DHT22;1858;48.716;9.648;2023-05-21T06:32:38;21.00;1.00
3684;DHT22;1858;48.716;9.648;2023-05-21T06:35:06;21.30;1.00
3684;DHT22;1858;48.716;9.648;2023-05-21T06:37:35;21.90;1.00
3684;DHT22;1858;48.716;9.648;2023-05-21T06:40:03;22.40;99.90
3684;DHT22;1858;48.716;9.648;2023-05-21T06:42:32;22.80;99.90
3684;DHT22;1858;48.716;9.648;2023-05-21T06:45:00;23.10;99.90
3684;DHT22;1858;48.716;9.648;2023-05-21T06:47:29;23.40;99.90
3684;DHT22;1858;48.716;9.648;2023-05-21T06:49:58;23.80;99.90
3684;DHT22;1858;48.716;9.648;2023-05-21T06:52:27;24.10;99.90
3684;DHT22;1858;48.716;9.648;2023-05-21T06:54:55;24.40;99.90
3684;DHT22;1858;48.716;9.648;2023-05-21T06:57:24;24.80;99.90
3684;DHT22;1858;48.716;9.648;2023-05-21T06:59:52;25.40;99.90
3684;DHT22;1858;48.716;9.648;2023-05-21T07:02:21;26.00;99.90
3684;DHT22;1858;48.716;9.648;2023-05-21T07:04:49;26.70;99.90
3684;DHT22;1858;48.716;9.648;2023-05-21T07:07:19;27.20;99.90
3684;DHT22;1858;48.716;9.648;2023-05-21T07:09:47;27.50;99.90
3684;DHT22;1858;48.716;9.648;2023-05-21T07:12:16;27.70;99.90
3684;DHT22;1858;48.716;9.648;2023-05-21T07:14:44;27.90;99.90
3684;DHT22;1858;48.716;9.648;2023-05-21T07:17:13;28.00;99.90
3684;DHT22;1858;48.716;9.648;2023-05-21T07:19:41;27.90;99.90
3684;DHT22;1858;48.716;9.648;2023-05-21T07:22:09;28.00;99.90
3684;DHT22;1858;48.716;9.648;2023-05-21T07:24:38;28.00;99.90
3684;DHT22;1858;48.716;9.648;2023-05-21T07:27:07;28.10;99.90
3684;DHT22;1858;48.716;9.648;2023-05-21T07:29:35;28.30;99.90
3684;DHT22;1858;48.716;9.648;2023-05-21T07:32:04;28.40;99.90
3684;DHT22;1858;48.716;9.648;2023-05-21T07:34:32;28.50;99.90
3684;DHT22;1858;48.716;9.648;2023-05-21T07:37:01;28.70;99.90
3684;DHT22;1858;48.716;9.648;2023-05-21T07:39:30;28.70;99.90
3684;DHT22;1858;48.716;9.648;2023-05-21T07:41:58;28.90;99.90
3684;DHT22;1858;48.716;9.648;2023-05-21T07:44:26;29.40;99.90
3684;DHT22;1858;48.716;9.648;2023-05-21T07:46:55;29.90;99.90
3684;DHT22;1858;48.716;9.648;2023-05-21T07:49:23;30.20;99.90
3684;DHT22;1858;48.716;9.648;2023-05-21T07:51:52;30.60;99.90
3684;DHT22;1858;48.716;9.648;2023-05-21T07:54:20;30.70;56.50
3684;DHT22;1858;48.716;9.648;2023-05-21T07:56:49;30.90;65.40
3684;DHT22;1858;48.716;9.648;2023-05-21T07:59:17;31.10;66.30
3684;DHT22;1858;48.716;9.648;2023-05-21T08:01:45;31.40;73.00
3684;DHT22;1858;48.716;9.648;2023-05-21T08:04:14;31.90;78.90
3684;DHT22;1858;48.716;9.648;2023-05-21T08:06:42;32.50;53.70
3684;DHT22;1858;48.716;9.648;2023-05-21T08:09:11;32.90;12.80
3684;DHT22;1858;48.716;9.648;2023-05-21T08:11:40;33.10;16.60
3684;DHT22;1858;48.716;9.648;2023-05-21T08:14:08;32.90;10.30
3684;DHT22;1858;48.716;9.648;2023-05-21T08:16:37;32.90;15.00
3684;DHT22;1858;48.716;9.648;2023-05-21T08:19:05;33.40;3.30
3684;DHT22;1858;48.716;9.648;2023-05-21T08:21:34;33.80;1.00
3684;DHT22;1858;48.716;9.648;2023-05-21T08:24:03;34.10;1.00
3684;DHT22;1858;48.716;9.648;2023-05-21T08:26:50;34.40;1.00
3684;DHT22;1858;48.716;9.648;2023-05-21T08:29:19;35.10;1.00
3684;DHT22;1858;48.716;9.648;2023-05-21T08:31:47;35.40;1.00
3684;DHT22;1858;48.716;9.648;2023-05-21T08:34:16;35.90;1.00
3684;DHT22;1858;48.716;9.648;2023-05-21T08:36:45;36.40;1.00
3684;DHT22;1858;48.716;9.648;2023-05-21T08:39:33;37.00;1.00
3684;DHT22;1858;48.716;9.648;2023-05-21T08:42:10;37.30;1.00
3684;DHT22;1858;48.716;9.648;2023-05-21T08:44:40;38.00;1.00
3684;DHT22;1858;48.716;9.648;2023-05-21T08:47:15;38.50;1.00
3684;DHT22;1858;48.716;9.648;2023-05-21T08:49:43;38.60;1.00
3684;DHT22;1858;48.716;9.648;2023-05-21T08:52:14;38.20;1.00
3684;DHT22;1858;48.716;9.648;2023-05-21T08:54:45;38.00;1.00
3684;DHT22;1858;48.716;9.648;2023-05-21T08:57:14;38.00;1.00
3684;DHT22;1858;48.716;9.648;2023-05-21T08:59:45;38.00;1.00
3684;DHT22;1858;48.716;9.648;2023-05-21T09:02:34;38.10;1.00
3684;DHT22;1858;48.716;9.648;2023-05-21T09:05:04;38.40;1.00
3684;DHT22;1858;48.716;9.648;2023-05-21T09:07:38;38.90;1.00
3684;DHT22;1858;48.716;9.648;2023-05-21T09:10:11;39.20;1.00
3684;DHT22;1858;48.716;9.648;2023-05-21T09:12:41;39.50;1.00
3684;DHT22;1858;48.716;9.648;2023-05-21T09:15:10;39.40;1.00
3684;DHT22;1858;48.716;9.648;2023-05-21T09:17:38;39.30;1.00
3684;DHT22;1858;48.716;9.648;2023-05-21T09:20:11;39.50;1.00
3684;DHT22;1858;48.716;9.648;2023-05-21T09:22:43;40.00;1.00
3684;DHT22;1858;48.716;9.648;2023-05-21T09:28:15;40.80;1.00
3684;DHT22;1858;48.716;9.648;2023-05-21T09:30:46;41.20;1.00
3684;DHT22;1858;48.716;9.648;2023-05-21T09:33:34;41.50;1.00
3684;DHT22;1858;48.716;9.648;2023-05-21T09:36:02;41.90;1.00
3684;DHT22;1858;48.716;9.648;2023-05-21T09:38:33;42.10;1.00
3684;DHT22;1858;48.716;9.648;2023-05-21T09:41:04;42.00;1.00
3684;DHT22;1858;48.716;9.648;2023-05-21T09:43:32;42.30;1.00
3684;DHT22;1858;48.716;9.648;2023-05-21T09:46:01;42.90;1.00
3684;DHT22;1858;48.716;9.648;2023-05-21T09:51:13;42.70;1.00
3684;DHT22;1858;48.716;9.648;2023-05-21T09:53:50;42.70;1.00
3684;DHT22;1858;48.716;9.648;2023-05-21T09:56:21;42.50;1.00
3684;DHT22;1858;48.716;9.648;2023-05-21T09:58:54;42.60;1.00
3684;DHT22;1858;48.716;9.648;2023-05-21T10:01:23;43.20;1.00
3684;DHT22;1858;48.716;9.648;2023-05-21T10:03:56;43.00;1.00
3684;DHT22;1858;48.716;9.648;2023-05-21T10:06:27;42.90;1.00
3684;DHT22;1858;48.716;9.648;2023-05-21T10:08:58;42.80;1.00
3684;DHT22;1858;48.716;9.648;2023-05-21T10:11:29;42.90;1.00
3684;DHT22;1858;48.716;9.648;2023-05-21T10:14:07;42.50;1.00
3684;DHT22;1858;48.716;9.648;2023-05-21T10:16:41;42.30;1.00
3684;DHT22;1858;48.716;9.648;2023-05-21T10:19:12;42.10;1.00
3684;DHT22;1858;48.716;9.648;2023-05-21T10:21:41;41.90;1.00
3684;DHT22;1858;48.716;9.648;2023-05-21T10:24:18;41.50;1.00
3684;DHT22;1858;48.716;9.648;2023-05-21T10:26:47;41.50;1.00
3684;DHT22;1858;48.716;9.648;2023-05-21T10:29:17;41.20;1.00
3684;DHT22;1858;48.716;9.648;2023-05-21T10:31:46;41.60;1.00
3684;DHT22;1858;48.716;9.648;2023-05-21T10:34:16;41.20;1.00
3684;DHT22;1858;48.716;9.648;2023-05-21T10:36:47;41.20;1.00
3684;DHT22;1858;48.716;9.648;2023-05-21T10:39:17;40.90;1.00
3684;DHT22;1858;48.716;9.648;2023-05-21T10:42:16;40.50;1.00
3684;DHT22;1858;48.716;9.648;2023-05-21T10:44:54;40.10;1.00
3684;DHT22;1858;48.716;9.648;2023-05-21T10:56:35;37.10;1.00
3684;DHT22;1858;48.716;9.648;2023-05-21T10:59:41;36.10;1.00
3684;DHT22;1858;48.716;9.648;2023-05-21T11:02:12;35.10;1.00
3684;DHT22;1858;48.716;9.648;2023-05-21T11:04:45;34.60;1.00
3684;DHT22;1858;48.716;9.648;2023-05-21T11:07:21;34.40;1.00
3684;DHT22;1858;48.716;9.648;2023-05-21T11:12:57;33.80;1.00
3684;DHT22;1858;48.716;9.648;2023-05-21T11:15:07;33.40;1.00
3684;DHT22;1858;48.716;9.648;2023-05-21T11:20:32;33.00;1.00
3684;DHT22;1858;48.716;9.648;2023-05-21T11:23:00;32.70;1.00
3684;DHT22;1858;48.716;9.648;2023-05-21T11:25:30;32.70;1.00
3684;DHT22;1858;48.716;9.648;2023-05-21T11:28:03;32.70;1.00
3684;DHT22;1858;48.716;9.648;2023-05-21T11:30:30;32.50;1.00
3684;DHT22;1858;48.716;9.648;2023-05-21T11:38:24;32.50;1.00
3684;DHT22;1858;48.716;9.648;2023-05-21T11:40:54;32.20;1.00
3684;DHT22;1858;48.716;9.648;2023-05-21T11:43:22;32.10;1.00
3684;DHT22;1858;48.716;9.648;2023-05-21T11:45:51;31.90;1.00
3684;DHT22;1858;48.716;9.648;2023-05-21T11:51:09;31.60;1.00
3684;DHT22;1858;48.716;9.648;2023-05-21T11:53:37;31.40;1.00
3684;DHT22;1858;48.716;9.648;2023-05-21T11:56:21;31.20;1.00
3684;DHT22;1858;48.716;9.648;2023-05-21T11:58:54;31.00;1.00
3684;DHT22;1858;48.716;9.648;2023-05-21T12:01:23;30.80;1.00
3684;DHT22;1858;48.716;9.648;2023-05-21T12:03:52;30.60;1.00
3684;DHT22;1858;48.716;9.648;2023-05-21T12:06:25;30.40;1.00
3684;DHT22;1858;48.716;9.648;2023-05-21T12:08:54;30.20;3.60
3684;DHT22;1858;48.716;9.648;2023-05-21T12:11:24;30.00;3.40
3684;DHT22;1858;48.716;9.648;2023-05-21T12:13:53;30.00;14.00
3684;DHT22;1858;48.716;9.648;2023-05-21T12:16:22;30.00;1.00
3684;DHT22;1858;48.716;9.648;2023-05-21T12:19:09;29.90;1.00
3684;DHT22;1858;48.716;9.648;2023-05-21T12:21:38;29.80;7.90
3684;DHT22;1858;48.716;9.648;2023-05-21T12:24:06;29.80;1.00
3684;DHT22;1858;48.716;9.648;2023-05-21T12:26:35;29.90;9.50
3684;DHT22;1858;48.716;9.648;2023-05-21T12:29:04;30.00;12.20
3684;DHT22;1858;48.716;9.648;2023-05-21T12:31:32;29.70;11.70
3684;DHT22;1858;48.716;9.648;2023-05-21T12:34:02;29.80;3.50
3684;DHT22;1858;48.716;9.648;2023-05-21T12:36:31;29.80;1.00
3684;DHT22;1858;48.716;9.648;2023-05-21T12:39:00;29.60;3.30
3684;DHT22;1858;48.716;9.648;2023-05-21T12:41:29;29.60;1.00
3684;DHT22;1858;48.716;9.648;2023-05-21T12:43:57;29.50;7.60
3684;DHT22;1858;48.716;9.648;2023-05-21T12:46:26;29.50;24.90
3684;DHT22;1858;48.716;9.648;2023-05-21T12:48:54;29.40;1.00
3684;DHT22;1858;48.716;9.648;2023-05-21T12:51:23;29.40;12.60
3684;DHT22;1858;48.716;9.648;2023-05-21T12:53:52;29.30;1.00
3684;DHT22;1858;48.716;9.648;2023-05-21T12:56:20;29.20;12.50
3684;DHT22;1858;48.716;9.648;2023-05-21T12:58:49;29.10;13.50
3684;DHT22;1858;48.716;9.648;2023-05-21T13:01:20;29.00;7.50
3684;DHT22;1858;48.716;9.648;2023-05-21T13:03:48;28.90;9.10
3684;DHT22;1858;48.716;9.648;2023-05-21T13:06:17;28.70;23.10
3684;DHT22;1858;48.716;9.648;2023-05-21T13:08:46;28.50;21.30
3684;DHT22;1858;48.716;9.648;2023-05-21T13:11:33;28.50;38.90
3684;DHT22;1858;48.716;9.648;2023-05-21T13:14:02;28.40;7.10
3684;DHT22;1858;48.716;9.648;2023-05-21T13:16:30;28.40;14.40
3684;DHT22;1858;48.716;9.648;2023-05-21T13:18:59;28.20;32.30
3684;DHT22;1858;48.716;9.648;2023-05-21T13:21:27;28.20;27.10
3684;DHT22;1858;48.716;9.648;2023-05-21T13:23:56;28.20;16.90
3684;DHT22;1858;48.716;9.648;2023-05-21T13:26:24;28.20;29.20
3684;DHT22;1858;48.716;9.648;2023-05-21T13:28:53;28.10;28.10
3684;DHT22;1858;48.716;9.648;2023-05-21T13:31:21;28.10;37.40
3684;DHT22;1858;48.716;9.648;2023-05-21T13:33:50;28.00;17.60
3684;DHT22;1858;48.716;9.648;2023-05-21T13:36:18;28.00;43.30
3684;DHT22;1858;48.716;9.648;2023-05-21T13:38:47;27.90;18.50
3684;DHT22;1858;48.716;9.648;2023-05-21T13:41:15;28.00;36.00
3684;DHT22;1858;48.716;9.648;2023-05-21T13:43:43;28.00;29.00
3684;DHT22;1858;48.716;9.648;2023-05-21T13:46:12;28.10;51.10
3684;DHT22;1858;48.716;9.648;2023-05-21T13:48:40;28.10;42.30
3684;DHT22;1858;48.716;9.648;2023-05-21T13:51:09;28.20;23.90
3684;DHT22;1858;48.716;9.648;2023-05-21T13:53:38;28.10;20.50
3684;DHT22;1858;48.716;9.648;2023-05-21T13:56:06;28.30;50.60
3684;DHT22;1858;48.716;9.648;2023-05-21T13:58:34;28.20;37.90
3684;DHT22;1858;48.716;9.648;2023-05-21T14:01:04;28.10;32.80
3684;DHT22;1858;48.716;9.648;2023-05-21T14:03:33;28.00;38.40
3684;DHT22;1858;48.716;9.648;2023-05-21T14:06:02;28.00;32.10
3684;DHT22;1858;48.716;9.648;2023-05-21T14:08:30;28.00;30.10
3684;DHT22;1858;48.716;9.648;2023-05-21T14:10:59;28.00;50.70
3684;DHT22;1858;48.716;9.648;2023-05-21T14:13:28;28.10;39.20
3684;DHT22;1858;48.716;9.648;2023-05-21T14:15:56;28.10;53.20
3684;DHT22;1858;48.716;9.648;2023-05-21T14:18:25;28.10;53.80
3684;DHT22;1858;48.716;9.648;2023-05-21T14:20:53;28.20;50.30
3684;DHT22;1858;48.716;9.648;2023-05-21T14:23:21;28.20;56.60
3684;DHT22;1858;48.716;9.648;2023-05-21T14:25:50;28.20;52.60
3684;DHT22;1858;48.716;9.648;2023-05-21T14:28:18;28.20;51.80
3684;DHT22;1858;48.716;9.648;2023-05-21T14:30:47;28.30;58.50
3684;DHT22;1858;48.716;9.648;2023-05-21T14:33:15;28.30;64.20
3684;DHT22;1858;48.716;9.648;2023-05-21T14:35:43;28.30;50.40
3684;DHT22;1858;48.716;9.648;2023-05-21T14:38:14;28.30;59.60
3684;DHT22;1858;48.716;9.648;2023-05-21T14:40:42;28.30;45.80
3684;DHT22;1858;48.716;9.648;2023-05-21T14:43:11;28.30;49.10
3684;DHT22;1858;48.716;9.648;2023-05-21T14:45:40;28.30;44.70
3684;DHT22;1858;48.716;9.648;2023-05-21T14:48:08;28.20;49.10
3684;DHT22;1858;48.716;9.648;2023-05-21T14:50:38;28.00;55.90
3684;DHT22;1858;48.716;9.648;2023-05-21T14:53:08;28.20;58.80
3684;DHT22;1858;48.716;9.648;2023-05-21T14:55:37;28.10;54.40
3684;DHT22;1858;48.716;9.648;2023-05-21T14:58:06;28.20;51.80
3684;DHT22;1858;48.716;9.648;2023-05-21T15:00:35;28.10;58.40
3684;DHT22;1858;48.716;9.648;2023-05-21T15:03:04;28.10;66.10
3684;DHT22;1858;48.716;9.648;2023-05-21T15:05:32;28.00;56.30
3684;DHT22;1858;48.716;9.648;2023-05-21T15:08:01;28.00;62.80
3684;DHT22;1858;48.716;9.648;2023-05-21T15:10:31;27.90;57.00
3684;DHT22;1858;48.716;9.648;2023-05-21T15:12:59;27.80;57.20
3684;DHT22;1858;48.716;9.648;2023-05-21T15:15:27;27.80;58.00
3684;DHT22;1858;48.716;9.648;2023-05-21T15:17:57;27.80;60.60
3684;DHT22;1858;48.716;9.648;2023-05-21T15:20:25;27.80;38.20
3684;DHT22;1858;48.716;9.648;2023-05-21T15:22:54;27.80;33.90
3684;DHT22;1858;48.716;9.648;2023-05-21T15:25:24;27.90;57.20
3684;DHT22;1858;48.716;9.648;2023-05-21T15:27:52;27.80;48.40
3684;DHT22;1858;48.716;9.648;2023-05-21T15:30:40;27.80;51.60
3684;DHT22;1858;48.716;9.648;2023-05-21T15:33:08;27.90;61.30
3684;DHT22;1858;48.716;9.648;2023-05-21T15:35:37;27.80;62.30
3684;DHT22;1858;48.716;9.648;2023-05-21T15:38:05;27.80;64.10
3684;DHT22;1858;48.716;9.648;2023-05-21T15:40:34;27.50;55.20
3684;DHT22;1858;48.716;9.648;2023-05-21T15:43:02;27.50;78.80
3684;DHT22;1858;48.716;9.648;2023-05-21T15:45:30;27.40;64.70
3684;DHT22;1858;48.716;9.648;2023-05-21T15:47:59;27.40;80.10
3684;DHT22;1858;48.716;9.648;2023-05-21T15:50:27;27.40;73.00
3684;DHT22;1858;48.716;9.648;2023-05-21T15:53:15;27.40;72.90
3684;DHT22;1858;48.716;9.648;2023-05-21T15:55:43;27.30;77.60
3684;DHT22;1858;48.716;9.648;2023-05-21T15:58:12;27.30;84.10
3684;DHT22;1858;48.716;9.648;2023-05-21T16:00:40;27.30;77.60
3684;DHT22;1858;48.716;9.648;2023-05-21T16:03:09;27.30;88.60
3684;DHT22;1858;48.716;9.648;2023-05-21T16:05:38;27.40;94.10
3684;DHT22;1858;48.716;9.648;2023-05-21T16:08:26;27.40;79.60
3684;DHT22;1858;48.716;9.648;2023-05-21T16:10:56;27.50;77.50
3684;DHT22;1858;48.716;9.648;2023-05-21T16:13:24;27.40;76.50
3684;DHT22;1858;48.716;9.648;2023-05-21T16:15:53;27.30;72.50
3684;DHT22;1858;48.716;9.648;2023-05-21T16:18:21;27.20;79.60
3684;DHT22;1858;48.716;9.648;2023-05-21T16:20:49;27.00;75.40
3684;DHT22;1858;48.716;9.648;2023-05-21T16:23:18;27.00;79.50
3684;DHT22;1858;48.716;9.648;2023-05-21T16:25:46;26.90;85.20
3684;DHT22;1858;48.716;9.648;2023-05-21T16:28:15;26.80;99.90
3684;DHT22;1858;48.716;9.648;2023-05-21T16:30:43;26.90;99.90
3684;DHT22;1858;48.716;9.648;2023-05-21T16:33:12;26.90;98.70
3684;DHT22;1858;48.716;9.648;2023-05-21T16:35:40;26.90;95.80
3684;DHT22;1858;48.716;9.648;2023-05-21T16:38:09;26.80;98.30
3684;DHT22;1858;48.716;9.648;2023-05-21T16:40:37;26.90;99.90
3684;DHT22;1858;48.716;9.648;2023-05-21T16:43:06;26.90;99.90
3684;DHT22;1858;48.716;9.648;2023-05-21T16:45:44;26.90;99.90
3684;DHT22;1858;48.716;9.648;2023-05-21T16:48:12;26.90;99.90
3684;DHT22;1858;48.716;9.648;2023-05-21T16:50:42;26.80;99.90
3684;DHT22;1858;48.716;9.648;2023-05-21T16:53:12;26.70;99.90
3684;DHT22;1858;48.716;9.648;2023-05-21T16:55:41;26.60;99.90
3684;DHT22;1858;48.716;9.648;2023-05-21T16:58:09;26.40;99.90
3684;DHT22;1858;48.716;9.648;2023-05-21T17:00:39;26.20;99.90
3684;DHT22;1858;48.716;9.648;2023-05-21T17:03:08;26.00;99.90